sensor_id;sensor_type;location;lat;lon;timestamp;pressure;altitude;pressure_sealevel;temperature;humidity
82418;BME280;72059;53.734;10.260;2023-10-09T00:00:57;101621.95;;;9.11;94.86
82418;BME280;72059;53.734;10.260;2023-10-09T00:03:32;101609.77;;;9.08;94.86
82418;BME280;72059;53.734;10.260;2023-10-09T00:06:01;101614.37;;;9.06;94.84
82418;BME280;72059;53.734;10.260;2023-10-09T00:08:30;101608.64;;;9.03;94.87
82418;BME280;72059;53.734;10.260;2023-10-09T00:11:00;101610.02;;;9.05;95.00
82418;BME280;72059;53.734;10.260;2023-10-09T00:13:43;101601.12;;;9.08;95.06
82418;BME280;72059;53.734;10.260;2023-10-09T00:16:22;101587.25;;;9.06;95.07
82418;BME280;72059;53.734;10.260;2023-10-09T00:18:52;101575.15;;;9.05;95.10
82418;BME280;72059;53.734;10.260;2023-10-09T00:21:20;101557.46;;;9.04;95.14
82418;BME280;72059;53.734;10.260;2023-10-09T00:23:48;101554.32;;;9.02;95.12
82418;BME280;72059;53.734;10.260;2023-10-09T00:26:23;101540.93;;;9.00;95.13
82418;BME280;72059;53.734;10.260;2023-10-09T00:28:51;101540.42;;;8.99;95.17
82418;BME280;72059;53.734;10.260;2023-10-09T00:31:19;101536.07;;;8.98;95.19
82418;BME280;72059;53.734;10.260;2023-10-09T00:33:54;101525.19;;;8.96;95.21
82418;BME280;72059;53.734;10.260;2023-10-09T00:36:23;101527.68;;;8.94;95.29
82418;BME280;72059;53.734;10.260;2023-10-09T00:38:52;101523.33;;;8.93;95.34
82418;BME280;72059;53.734;10.260;2023-10-09T00:41:20;101523.25;;;8.92;95.39
82418;BME280;72059;53.734;10.260;2023-10-09T00:43:49;101504.10;;;8.88;95.40
82418;BME280;72059;53.734;10.260;2023-10-09T00:46:21;101500.15;;;8.86;95.39
82418;BME280;72059;53.734;10.260;2023-10-09T00:48:58;101497.43;;;8.83;95.43
82418;BME280;72059;53.734;10.260;2023-10-09T00:51:23;101496.88;;;8.81;95.44
82418;BME280;72059;53.734;10.260;2023-10-09T00:54:01;101489.52;;;8.80;95.47
82418;BME280;72059;53.734;10.260;2023-10-09T00:56:25;101477.73;;;8.77;95.49
82418;BME280;72059;53.734;10.260;2023-10-09T00:58:57;101477.64;;;8.76;95.49
82418;BME280;72059;53.734;10.260;2023-10-09T01:01:28;101482.25;;;8.73;95.53
82418;BME280;72059;53.734;10.260;2023-10-09T01:03:57;101481.13;;;8.68;95.53
82418;BME280;72059;53.734;10.260;2023-10-09T01:06:25;101477.00;;;8.63;95.49
82418;BME280;72059;53.734;10.260;2023-10-09T01:08:54;101478.30;;;8.63;95.57
82418;BME280;72059;53.734;10.260;2023-10-09T01:11:26;101474.42;;;8.63;95.66
82418;BME280;72059;53.734;10.260;2023-10-09T01:13:57;101458.94;;;8.63;95.73
82418;BME280;72059;53.734;10.260;2023-10-09T01:16:26;101452.88;;;8.63;95.76
82418;BME280;72059;53.734;10.260;2023-10-09T01:18:55;101447.23;;;8.61;95.81
82418;BME280;72059;53.734;10.260;2023-10-09T01:21:26;101438.20;;;8.61;95.86
82418;BME280;72059;53.734;10.260;2023-10-09T01:23:55;101438.12;;;8.60;95.91
82418;BME280;72059;53.734;10.260;2023-10-09T01:26:31;101437.64;;;8.59;95.96
82418;BME280;72059;53.734;10.260;2023-10-09T01:29:01;101444.57;;;8.60;96.05
82418;BME280;72059;53.734;10.260;2023-10-09T01:31:30;101428.27;;;8.61;96.11
82418;BME280;72059;53.734;10.260;2023-10-09T01:33:59;101421.82;;;8.61;96.13
82418;BME280;72059;53.734;10.260;2023-10-09T01:36:26;101439.49;;;8.61;96.20
82418;BME280;72059;53.734;10.260;2023-10-09T01:39:00;101428.36;;;8.63;96.25
82418;BME280;72059;53.734;10.260;2023-10-09T01:41:30;101430.55;;;8.63;96.29
82418;BME280;72059;53.734;10.260;2023-10-09T01:43:59;101434.33;;;8.61;96.33
82418;BME280;72059;53.734;10.260;2023-10-09T01:46:28;101433.44;;;8.61;96.33
82418;BME280;72059;53.734;10.260;2023-10-09T01:48:57;101435.23;;;8.62;96.41
82418;BME280;72059;53.734;10.260;2023-10-09T01:51:25;101425.77;;;8.63;96.46
82418;BME280;72059;53.734;10.260;2023-10-09T01:53:54;101417.47;;;8.60;96.48
82418;BME280;72059;53.734;10.260;2023-10-09T01:56:23;101407.57;;;8.59;96.52
82418;BME280;72059;53.734;10.260;2023-10-09T01:58:50;101405.30;;;8.57;96.51
82418;BME280;72059;53.734;10.260;2023-10-09T02:01:19;101403.45;;;8.55;96.50
82418;BME280;72059;53.734;10.260;2023-10-09T02:03:47;101407.32;;;8.55;96.56
82418;BME280;72059;53.734;10.260;2023-10-09T02:06:16;101411.75;;;8.57;96.61
82418;BME280;72059;53.734;10.260;2023-10-09T02:08:54;101406.28;;;8.59;96.68
82418;BME280;72059;53.734;10.260;2023-10-09T02:11:22;101401.98;;;8.60;96.71
82418;BME280;72059;53.734;10.260;2023-10-09T02:14:07;101402.41;;;8.59;96.72
82418;BME280;72059;53.734;10.260;2023-10-09T02:16:47;101412.14;;;8.57;96.70
82418;BME280;72059;53.734;10.260;2023-10-09T02:19:32;101408.70;;;8.56;96.72
82418;BME280;72059;53.734;10.260;2023-10-09T02:22:04;101400.05;;;8.56;96.73
82418;BME280;72059;53.734;10.260;2023-10-09T02:24:33;101393.13;;;8.55;96.74
82418;BME280;72059;53.734;10.260;2023-10-09T02:27:17;101367.32;;;8.55;96.75
82418;BME280;72059;53.734;10.260;2023-10-09T02:29:48;101387.88;;;8.53;96.74
82418;BME280;72059;53.734;10.260;2023-10-09T02:32:15;101358.98;;;8.52;96.76
82418;BME280;72059;53.734;10.260;2023-10-09T02:34:44;101343.90;;;8.52;96.79
82418;BME280;72059;53.734;10.260;2023-10-09T02:37:12;101344.20;;;8.49;96.76
82418;BME280;72059;53.734;10.260;2023-10-09T02:39:40;101335.99;;;8.48;96.78
82418;BME280;72059;53.734;10.260;2023-10-09T02:42:11;101348.81;;;8.47;96.79
82418;BME280;72059;53.734;10.260;2023-10-09T02:44:40;101351.81;;;8.46;96.82
82418;BME280;72059;53.734;10.260;2023-10-09T02:47:10;101360.42;;;8.47;96.83
82418;BME280;72059;53.734;10.260;2023-10-09T02:49:39;101366.01;;;8.46;96.80
82418;BME280;72059;53.734;10.260;2023-10-09T02:52:06;101349.63;;;8.46;96.82
82418;BME280;72059;53.734;10.260;2023-10-09T02:54:34;101343.99;;;8.45;96.82
82418;BME280;72059;53.734;10.260;2023-10-09T02:57:02;101335.35;;;8.44;96.82
82418;BME280;72059;53.734;10.260;2023-10-09T02:59:34;101327.95;;;8.42;96.83
82418;BME280;72059;53.734;10.260;2023-10-09T03:02:04;101323.19;;;8.42;96.85
82418;BME280;72059;53.734;10.260;2023-10-09T03:04:31;101334.80;;;8.42;96.85
82418;BME280;72059;53.734;10.260;2023-10-09T03:06:59;101336.48;;;8.41;96.87
82418;BME280;72059;53.734;10.260;2023-10-09T03:09:27;101330.03;;;8.41;96.86
82418;BME280;72059;53.734;10.260;2023-10-09T03:11:56;101322.63;;;8.39;96.85
82418;BME280;72059;53.734;10.260;2023-10-09T03:14:34;101315.70;;;8.38;96.86
82418;BME280;72059;53.734;10.260;2023-10-09T03:17:03;101293.70;;;8.36;96.82
82418;BME280;72059;53.734;10.260;2023-10-09T03:19:34;101288.45;;;8.35;96.81
82418;BME280;72059;53.734;10.260;2023-10-09T03:22:09;101292.41;;;8.36;96.81
82418;BME280;72059;53.734;10.260;2023-10-09T03:24:34;101293.61;;;8.35;96.80
82418;BME280;72059;53.734;10.260;2023-10-09T03:27:02;101288.45;;;8.35;96.82
82418;BME280;72059;53.734;10.260;2023-10-09T03:29:29;101292.23;;;8.33;96.82
82418;BME280;72059;53.734;10.260;2023-10-09T03:31:57;101293.61;;;8.35;96.84
82418;BME280;72059;53.734;10.260;2023-10-09T03:34:26;101284.16;;;8.35;96.81
82418;BME280;72059;53.734;10.260;2023-10-09T03:36:54;101275.55;;;8.35;96.81
82418;BME280;72059;53.734;10.260;2023-10-09T03:39:31;101279.42;;;8.35;96.80
82418;BME280;72059;53.734;10.260;2023-10-09T03:42:07;101276.84;;;8.35;96.81
82418;BME280;72059;53.734;10.260;2023-10-09T03:44:36;101270.05;;;8.37;96.82
82418;BME280;72059;53.734;10.260;2023-10-09T03:47:05;101270.56;;;8.38;96.82
82418;BME280;72059;53.734;10.260;2023-10-09T03:49:34;101261.84;;;8.36;96.80
82418;BME280;72059;53.734;10.260;2023-10-09T03:52:04;101265.23;;;8.35;96.81
82418;BME280;72059;53.734;10.260;2023-10-09T03:54:33;101265.62;;;8.34;96.78
82418;BME280;72059;53.734;10.260;2023-10-09T03:57:02;101262.09;;;8.32;96.77
82418;BME280;72059;53.734;10.260;2023-10-09T03:59:29;101252.25;;;8.33;96.81
82418;BME280;72059;53.734;10.260;2023-10-09T04:01:57;101246.36;;;8.36;96.84
82418;BME280;72059;53.734;10.260;2023-10-09T04:04:25;101248.04;;;8.35;96.86
82418;BME280;72059;53.734;10.260;2023-10-09T04:06:54;101256.20;;;8.35;96.86
82418;BME280;72059;53.734;10.260;2023-10-09T04:09:21;101253.63;;;8.35;96.84
82418;BME280;72059;53.734;10.260;2023-10-09T04:11:52;101253.94;;;8.33;96.86
82418;BME280;72059;53.734;10.260;2023-10-09T04:14:40;101253.46;;;8.32;96.84
82418;BME280;72059;53.734;10.260;2023-10-09T04:17:18;101245.25;;;8.31;96.84
82418;BME280;72059;53.734;10.260;2023-10-09T04:19:53;101250.33;;;8.29;96.77
82418;BME280;72059;53.734;10.260;2023-10-09T04:22:39;101245.95;;;8.28;96.72
82418;BME280;72059;53.734;10.260;2023-10-09T04:25:09;101242.90;;;8.27;96.72
82418;BME280;72059;53.734;10.260;2023-10-09T04:27:44;101236.87;;;8.27;96.71
82418;BME280;72059;53.734;10.260;2023-10-09T04:30:13;101237.74;;;8.27;96.75
82418;BME280;72059;53.734;10.260;2023-10-09T04:32:42;101224.29;;;8.25;96.72
82418;BME280;72059;53.734;10.260;2023-10-09T04:35:11;101226.31;;;8.22;96.66
82418;BME280;72059;53.734;10.260;2023-10-09T04:37:49;101227.61;;;8.22;96.66
82418;BME280;72059;53.734;10.260;2023-10-09T04:40:22;101221.81;;;8.18;96.61
82418;BME280;72059;53.734;10.260;2023-10-09T04:43:06;101223.92;;;8.17;96.61
82418;BME280;72059;53.734;10.260;2023-10-09T04:45:39;101219.15;;;8.16;96.59
82418;BME280;72059;53.734;10.260;2023-10-09T04:48:10;101213.65;;;8.18;96.62
82418;BME280;72059;53.734;10.260;2023-10-09T04:50:38;101213.17;;;8.17;96.59
82418;BME280;72059;53.734;10.260;2023-10-09T04:53:16;101209.00;;;8.19;96.61
82418;BME280;72059;53.734;10.260;2023-10-09T04:55:45;101211.73;;;8.22;96.63
82418;BME280;72059;53.734;10.260;2023-10-09T04:58:24;101213.97;;;8.25;96.65
82418;BME280;72059;53.734;10.260;2023-10-09T05:00:53;101206.70;;;8.26;96.66
82418;BME280;72059;53.734;10.260;2023-10-09T05:03:25;101213.08;;;8.24;96.63
82418;BME280;72059;53.734;10.260;2023-10-09T05:05:57;101210.92;;;8.23;96.60
82418;BME280;72059;53.734;10.260;2023-10-09T05:08:26;101211.31;;;8.23;96.60
82418;BME280;72059;53.734;10.260;2023-10-09T05:10:57;101206.16;;;8.23;96.56
82418;BME280;72059;53.734;10.260;2023-10-09T05:13:27;101199.31;;;8.23;96.59
82418;BME280;72059;53.734;10.260;2023-10-09T05:16:15;101189.00;;;8.23;96.56
82418;BME280;72059;53.734;10.260;2023-10-09T05:18:49;101188.09;;;8.23;96.55
82418;BME280;72059;53.734;10.260;2023-10-09T05:21:40;101178.20;;;8.22;96.53
82418;BME280;72059;53.734;10.260;2023-10-09T05:24:12;101167.89;;;8.22;96.52
82418;BME280;72059;53.734;10.260;2023-10-09T05:26:48;101165.70;;;8.22;96.50
82418;BME280;72059;53.734;10.260;2023-10-09T05:29:20;101163.13;;;8.22;96.48
82418;BME280;72059;53.734;10.260;2023-10-09T05:31:52;101165.23;;;8.21;96.48
82418;BME280;72059;53.734;10.260;2023-10-09T05:34:27;101162.06;;;8.18;96.43
82418;BME280;72059;53.734;10.260;2023-10-09T05:36:56;101165.80;;;8.15;96.39
82418;BME280;72059;53.734;10.260;2023-10-09T05:39:25;101149.44;;;8.15;96.40
82418;BME280;72059;53.734;10.260;2023-10-09T05:42:12;101153.70;;;8.14;96.37
82418;BME280;72059;53.734;10.260;2023-10-09T05:44:41;101148.45;;;8.13;96.32
82418;BME280;72059;53.734;10.260;2023-10-09T05:47:24;101157.83;;;8.10;96.27
82418;BME280;72059;53.734;10.260;2023-10-09T05:49:58;101150.36;;;8.07;96.18
82418;BME280;72059;53.734;10.260;2023-10-09T05:52:33;101148.98;;;8.05;96.17
82418;BME280;72059;53.734;10.260;2023-10-09T05:55:08;101147.70;;;8.05;96.13
82418;BME280;72059;53.734;10.260;2023-10-09T05:57:43;101158.87;;;8.06;96.08
82418;BME280;72059;53.734;10.260;2023-10-09T06:00:21;101183.30;;;8.04;96.04
82418;BME280;72059;53.734;10.260;2023-10-09T06:03:06;101185.79;;;8.03;96.00
82418;BME280;72059;53.734;10.260;2023-10-09T06:05:52;101185.31;;;8.02;95.97
82418;BME280;72059;53.734;10.260;2023-10-09T06:08:30;101181.45;;;8.02;95.94
82418;BME280;72059;53.734;10.260;2023-10-09T06:11:11;101169.27;;;8.07;95.98
82418;BME280;72059;53.734;10.260;2023-10-09T06:13:58;101159.86;;;8.08;95.99
82418;BME280;72059;53.734;10.260;2023-10-09T06:16:37;101161.14;;;8.08;95.93
82418;BME280;72059;53.734;10.260;2023-10-09T06:19:24;101154.23;;;8.07;95.97
82418;BME280;72059;53.734;10.260;2023-10-09T06:21:56;101160.72;;;8.08;96.01
82418;BME280;72059;53.734;10.260;2023-10-09T06:24:31;101172.75;;;8.08;96.04
82418;BME280;72059;53.734;10.260;2023-10-09T06:27:12;101178.38;;;8.09;96.12
82418;BME280;72059;53.734;10.260;2023-10-09T06:29:42;101184.44;;;8.09;96.18
82418;BME280;72059;53.734;10.260;2023-10-09T06:32:18;101196.43;;;8.09;96.19
82418;BME280;72059;53.734;10.260;2023-10-09T06:34:49;101189.17;;;8.10;96.25
82418;BME280;72059;53.734;10.260;2023-10-09T06:37:27;101177.64;;;8.12;96.29
82418;BME280;72059;53.734;10.260;2023-10-09T06:39:55;101181.94;;;8.11;96.29
82418;BME280;72059;53.734;10.260;2023-10-09T06:42:24;101175.41;;;8.09;96.26
82418;BME280;72059;53.734;10.260;2023-10-09T06:45:06;101166.77;;;8.09;96.27
82418;BME280;72059;53.734;10.260;2023-10-09T06:47:46;101167.98;;;8.07;96.33
82418;BME280;72059;53.734;10.260;2023-10-09T06:50:14;101149.85;;;8.06;96.35
82418;BME280;72059;53.734;10.260;2023-10-09T06:52:49;101156.95;;;8.02;96.38
82418;BME280;72059;53.734;10.260;2023-10-09T06:55:27;101145.92;;;7.96;96.44
82418;BME280;72059;53.734;10.260;2023-10-09T06:58:02;101156.72;;;8.05;96.52
82418;BME280;72059;53.734;10.260;2023-10-09T07:00:31;101152.98;;;8.08;96.56
82418;BME280;72059;53.734;10.260;2023-10-09T07:03:16;101147.52;;;8.10;96.59
82418;BME280;72059;53.734;10.260;2023-10-09T07:05:45;101145.75;;;8.09;96.62
82418;BME280;72059;53.734;10.260;2023-10-09T07:08:30;101146.62;;;8.10;96.65
82418;BME280;72059;53.734;10.260;2023-10-09T07:11:02;101150.80;;;8.16;96.71
82418;BME280;72059;53.734;10.260;2023-10-09T07:13:31;101148.47;;;8.21;96.76
82418;BME280;72059;53.734;10.260;2023-10-09T07:16:00;101158.13;;;8.25;96.78
82418;BME280;72059;53.734;10.260;2023-10-09T07:18:45;101146.09;;;8.26;96.79
82418;BME280;72059;53.734;10.260;2023-10-09T07:21:14;101140.27;;;8.30;96.82
82418;BME280;72059;53.734;10.260;2023-10-09T07:23:43;101131.48;;;8.34;96.85
82418;BME280;72059;53.734;10.260;2023-10-09T07:26:12;101133.47;;;8.40;96.88
82418;BME280;72059;53.734;10.260;2023-10-09T07:28:47;101137.66;;;8.46;96.90
82418;BME280;72059;53.734;10.260;2023-10-09T07:31:18;101131.48;;;8.53;96.90
82418;BME280;72059;53.734;10.260;2023-10-09T07:33:53;101133.58;;;8.60;96.89
82418;BME280;72059;53.734;10.260;2023-10-09T07:36:24;101138.23;;;8.67;96.81
82418;BME280;72059;53.734;10.260;2023-10-09T07:38:59;101138.45;;;8.72;96.72
82418;BME280;72059;53.734;10.260;2023-10-09T07:41:31;101139.00;;;8.74;96.58
82418;BME280;72059;53.734;10.260;2023-10-09T07:44:01;101131.87;;;8.79;96.47
82418;BME280;72059;53.734;10.260;2023-10-09T07:46:30;101134.14;;;8.81;96.32
82418;BME280;72059;53.734;10.260;2023-10-09T07:49:01;101133.47;;;8.85;96.28
82418;BME280;72059;53.734;10.260;2023-10-09T07:51:36;101126.61;;;8.95;96.25
82418;BME280;72059;53.734;10.260;2023-10-09T07:54:04;101132.30;;;9.06;96.17
82418;BME280;72059;53.734;10.260;2023-10-09T07:56:35;101143.86;;;9.15;96.12
82418;BME280;72059;53.734;10.260;2023-10-09T07:59:07;101145.01;;;9.21;96.01
82418;BME280;72059;53.734;10.260;2023-10-09T08:01:44;101144.73;;;9.25;95.89
82418;BME280;72059;53.734;10.260;2023-10-09T08:04:23;101140.31;;;9.22;95.76
82418;BME280;72059;53.734;10.260;2023-10-09T08:06:52;101146.84;;;9.24;95.77
82418;BME280;72059;53.734;10.260;2023-10-09T08:09:21;101151.25;;;9.17;95.69
82418;BME280;72059;53.734;10.260;2023-10-09T08:11:50;101152.28;;;9.10;95.72
82418;BME280;72059;53.734;10.260;2023-10-09T08:14:28;101155.93;;;9.06;95.81
82418;BME280;72059;53.734;10.260;2023-10-09T08:17:03;101148.78;;;9.00;95.92
82418;BME280;72059;53.734;10.260;2023-10-09T08:19:48;101149.84;;;8.95;96.04
82418;BME280;72059;53.734;10.260;2023-10-09T08:22:27;101141.91;;;8.91;96.14
82418;BME280;72059;53.734;10.260;2023-10-09T08:24:57;101142.70;;;8.90;96.25
82418;BME280;72059;53.734;10.260;2023-10-09T08:27:26;101156.11;;;8.91;96.32
82418;BME280;72059;53.734;10.260;2023-10-09T08:30:03;101152.86;;;8.95;96.42
82418;BME280;72059;53.734;10.260;2023-10-09T08:32:47;101149.53;;;8.97;96.47
82418;BME280;72059;53.734;10.260;2023-10-09T08:35:35;101151.76;;;8.99;96.48
82418;BME280;72059;53.734;10.260;2023-10-09T08:38:04;101146.74;;;9.03;96.49
82418;BME280;72059;53.734;10.260;2023-10-09T08:40:42;101151.91;;;9.03;96.48
82418;BME280;72059;53.734;10.260;2023-10-09T08:43:18;101150.61;;;9.03;96.51
82418;BME280;72059;53.734;10.260;2023-10-09T08:45:48;101146.42;;;9.05;96.56
82418;BME280;72059;53.734;10.260;2023-10-09T08:48:17;101154.86;;;9.10;96.57
82418;BME280;72059;53.734;10.260;2023-10-09T08:50:45;101146.22;;;9.10;96.58
82418;BME280;72059;53.734;10.260;2023-10-09T08:53:15;101149.02;;;9.15;96.59
82418;BME280;72059;53.734;10.260;2023-10-09T08:55:44;101144.04;;;9.19;96.61
82418;BME280;72059;53.734;10.260;2023-10-09T08:58:17;101145.33;;;9.19;96.60
82418;BME280;72059;53.734;10.260;2023-10-09T09:00:49;101139.02;;;9.22;96.64
82418;BME280;72059;53.734;10.260;2023-10-09T09:03:18;101137.12;;;9.28;96.68
82418;BME280;72059;53.734;10.260;2023-10-09T09:05:56;101135.91;;;9.30;96.68
82418;BME280;72059;53.734;10.260;2023-10-09T09:08:25;101131.70;;;9.32;96.67
82418;BME280;72059;53.734;10.260;2023-10-09T09:11:07;101136.30;;;9.39;96.66
82418;BME280;72059;53.734;10.260;2023-10-09T09:13:45;101132.50;;;9.41;96.63
82418;BME280;72059;53.734;10.260;2023-10-09T09:16:17;101134.90;;;9.46;96.61
82418;BME280;72059;53.734;10.260;2023-10-09T09:19:07;101133.79;;;9.50;96.60
82418;BME280;72059;53.734;10.260;2023-10-09T09:21:38;101138.31;;;9.55;96.57
82418;BME280;72059;53.734;10.260;2023-10-09T09:24:09;101134.75;;;9.53;96.50
82418;BME280;72059;53.734;10.260;2023-10-09T09:26:44;101140.89;;;9.55;96.45
82418;BME280;72059;53.734;10.260;2023-10-09T09:29:15;101139.03;;;9.52;96.42
82418;BME280;72059;53.734;10.260;2023-10-09T09:31:54;101141.14;;;9.51;96.39
82418;BME280;72059;53.734;10.260;2023-10-09T09:34:24;101134.97;;;9.57;96.47
82418;BME280;72059;53.734;10.260;2023-10-09T09:36:59;101134.89;;;9.66;96.49
82418;BME280;72059;53.734;10.260;2023-10-09T09:39:28;101136.17;;;9.75;96.45
82418;BME280;72059;53.734;10.260;2023-10-09T09:41:57;101131.87;;;9.86;96.40
82418;BME280;72059;53.734;10.260;2023-10-09T09:44:27;101127.98;;;9.96;96.32
82418;BME280;72059;53.734;10.260;2023-10-09T09:46:57;101123.80;;;9.99;96.18
82418;BME280;72059;53.734;10.260;2023-10-09T09:49:27;101120.12;;;10.04;96.08
82418;BME280;72059;53.734;10.260;2023-10-09T09:52:06;101118.97;;;10.07;96.02
82418;BME280;72059;53.734;10.260;2023-10-09T09:54:26;101118.51;;;10.18;95.93
82418;BME280;72059;53.734;10.260;2023-10-09T09:56:56;101101.63;;;10.16;95.76
82418;BME280;72059;53.734;10.260;2023-10-09T09:59:26;101106.12;;;10.32;95.61
82418;BME280;72059;53.734;10.260;2023-10-09T10:01:58;101103.27;;;10.45;95.48
82418;BME280;72059;53.734;10.260;2023-10-09T10:04:29;101104.31;;;10.50;95.25
82418;BME280;72059;53.734;10.260;2023-10-09T10:06:59;101099.14;;;10.50;95.05
82418;BME280;72059;53.734;10.260;2023-10-09T10:09:38;101096.80;;;10.57;95.06
82418;BME280;72059;53.734;10.260;2023-10-09T10:12:08;101099.28;;;10.65;95.01
82418;BME280;72059;53.734;10.260;2023-10-09T10:14:54;101101.22;;;10.71;94.98
82418;BME280;72059;53.734;10.260;2023-10-09T10:17:26;101107.33;;;10.73;94.93
82418;BME280;72059;53.734;10.260;2023-10-09T10:20:00;101107.39;;;10.74;94.97
82418;BME280;72059;53.734;10.260;2023-10-09T10:22:30;101114.44;;;10.67;94.91
82418;BME280;72059;53.734;10.260;2023-10-09T10:24:59;101112.41;;;10.58;94.97
82418;BME280;72059;53.734;10.260;2023-10-09T10:27:28;101100.16;;;10.54;95.06
82418;BME280;72059;53.734;10.260;2023-10-09T10:30:28;101100.25;;;10.57;95.18
82418;BME280;72059;53.734;10.260;2023-10-09T10:33:01;101102.57;;;10.61;95.22
82418;BME280;72059;53.734;10.260;2023-10-09T10:35:43;101103.22;;;10.66;95.18
82418;BME280;72059;53.734;10.260;2023-10-09T10:41:15;101116.16;;;10.55;94.88
82418;BME280;72059;53.734;10.260;2023-10-09T10:43:47;101114.14;;;10.48;94.92
82418;BME280;72059;53.734;10.260;2023-10-09T10:46:15;101112.78;;;10.46;95.10
82418;BME280;72059;53.734;10.260;2023-10-09T10:49:04;101116.33;;;10.48;95.19
82418;BME280;72059;53.734;10.260;2023-10-09T10:51:45;101106.50;;;10.51;95.31
82418;BME280;72059;53.734;10.260;2023-10-09T10:54:23;101101.39;;;10.52;95.28
82418;BME280;72059;53.734;10.260;2023-10-09T10:56:55;101101.45;;;10.54;95.21
82418;BME280;72059;53.734;10.260;2023-10-09T10:59:24;101097.27;;;10.58;95.22
82418;BME280;72059;53.734;10.260;2023-10-09T11:01:53;101093.45;;;10.59;95.18
82418;BME280;72059;53.734;10.260;2023-10-09T11:04:26;101099.92;;;10.59;95.16
82418;BME280;72059;53.734;10.260;2023-10-09T11:06:56;101095.79;;;10.64;95.31
82418;BME280;72059;53.734;10.260;2023-10-09T11:09:28;101093.33;;;10.67;95.24
82418;BME280;72059;53.734;10.260;2023-10-09T11:12:06;101099.41;;;10.68;95.23
82418;BME280;72059;53.734;10.260;2023-10-09T11:14:47;101101.69;;;10.72;95.30
82418;BME280;72059;53.734;10.260;2023-10-09T11:17:39;101096.62;;;10.75;95.27
82418;BME280;72059;53.734;10.260;2023-10-09T11:20:05;101097.52;;;10.75;95.19
82418;BME280;72059;53.734;10.260;2023-10-09T11:22:51;101105.45;;;10.80;95.25
82418;BME280;72059;53.734;10.260;2023-10-09T11:25:47;101102.67;;;10.87;95.31
82418;BME280;72059;53.734;10.260;2023-10-09T11:28:25;101093.97;;;10.96;95.30
82418;BME280;72059;53.734;10.260;2023-10-09T11:31:09;101082.13;;;11.03;95.24
82418;BME280;72059;53.734;10.260;2023-10-09T11:33:49;101077.77;;;11.13;95.14
82418;BME280;72059;53.734;10.260;2023-10-09T11:36:20;101076.64;;;11.31;95.05
82418;BME280;72059;53.734;10.260;2023-10-09T11:38:49;101075.91;;;11.60;94.86
82418;BME280;72059;53.734;10.260;2023-10-09T11:41:19;101076.95;;;11.91;94.53
82418;BME280;72059;53.734;10.260;2023-10-09T11:43:53;101078.67;;;12.16;94.00
82418;BME280;72059;53.734;10.260;2023-10-09T11:46:23;101075.09;;;12.40;93.49
82418;BME280;72059;53.734;10.260;2023-10-09T11:49:08;101065.09;;;12.38;92.99
82418;BME280;72059;53.734;10.260;2023-10-09T11:51:48;101087.97;;;12.23;93.09
82418;BME280;72059;53.734;10.260;2023-10-09T11:54:34;101082.63;;;11.92;93.13
82418;BME280;72059;53.734;10.260;2023-10-09T11:57:04;101092.05;;;11.77;93.57
82418;BME280;72059;53.734;10.260;2023-10-09T11:59:32;101090.13;;;11.71;93.89
82418;BME280;72059;53.734;10.260;2023-10-09T12:02:08;101088.09;;;11.62;94.06
82418;BME280;72059;53.734;10.260;2023-10-09T12:04:41;101089.80;;;11.49;94.19
82418;BME280;72059;53.734;10.260;2023-10-09T12:07:09;101081.69;;;11.39;94.30
82418;BME280;72059;53.734;10.260;2023-10-09T12:09:37;101076.94;;;11.39;94.48
82418;BME280;72059;53.734;10.260;2023-10-09T12:12:06;101074.45;;;11.42;94.57
82418;BME280;72059;53.734;10.260;2023-10-09T12:14:35;101083.27;;;11.47;94.66
82418;BME280;72059;53.734;10.260;2023-10-09T12:17:08;101085.45;;;11.48;94.62
82418;BME280;72059;53.734;10.260;2023-10-09T12:19:36;101089.41;;;11.49;94.69
82418;BME280;72059;53.734;10.260;2023-10-09T12:22:06;101086.64;;;11.44;94.75
82418;BME280;72059;53.734;10.260;2023-10-09T12:24:35;101087.61;;;11.48;95.02
82418;BME280;72059;53.734;10.260;2023-10-09T12:27:04;101087.61;;;11.48;95.02
82418;BME280;72059;53.734;10.260;2023-10-09T12:29:34;101087.33;;;11.52;95.06
82418;BME280;72059;53.734;10.260;2023-10-09T12:32:01;101083.12;;;11.55;95.10
82418;BME280;72059;53.734;10.260;2023-10-09T12:34:29;101080.98;;;11.56;95.07
82418;BME280;72059;53.734;10.260;2023-10-09T12:36:58;101083.58;;;11.56;95.05
82418;BME280;72059;53.734;10.260;2023-10-09T12:39:28;101081.48;;;11.57;95.03
82418;BME280;72059;53.734;10.260;2023-10-09T12:42:00;101091.84;;;11.57;95.05
82418;BME280;72059;53.734;10.260;2023-10-09T12:44:33;101098.62;;;11.54;95.09
82418;BME280;72059;53.734;10.260;2023-10-09T12:47:02;101096.80;;;11.51;95.22
82418;BME280;72059;53.734;10.260;2023-10-09T12:49:31;101090.49;;;11.56;95.35
82418;BME280;72059;53.734;10.260;2023-10-09T12:51:59;101087.80;;;11.66;95.43
82418;BME280;72059;53.734;10.260;2023-10-09T12:54:26;101082.08;;;11.76;95.35
82418;BME280;72059;53.734;10.260;2023-10-09T12:56:55;101086.03;;;11.78;95.21
82418;BME280;72059;53.734;10.260;2023-10-09T12:59:24;101084.78;;;11.79;95.15
82418;BME280;72059;53.734;10.260;2023-10-09T13:01:51;101077.27;;;11.74;95.12
82418;BME280;72059;53.734;10.260;2023-10-09T13:04:20;101072.98;;;11.75;95.11
82418;BME280;72059;53.734;10.260;2023-10-09T13:06:49;101070.12;;;11.80;95.15
82418;BME280;72059;53.734;10.260;2023-10-09T13:09:18;101072.20;;;11.90;95.13
82418;BME280;72059;53.734;10.260;2023-10-09T13:11:47;101069.73;;;11.95;95.07
82418;BME280;72059;53.734;10.260;2023-10-09T13:14:16;101068.93;;;11.96;94.98
82418;BME280;72059;53.734;10.260;2023-10-09T13:16:45;101072.09;;;12.00;94.96
82418;BME280;72059;53.734;10.260;2023-10-09T13:19:13;101070.41;;;12.02;94.87